sensor_id;sensor_type;location;lat;lon;timestamp;temperature;humidity
10296;DHT22;5193;51.032;6.356;2022-08-19T00:00:07;17.80;99.90
10296;DHT22;5193;51.032;6.356;2022-08-19T00:02:34;17.80;99.90
10296;DHT22;5193;51.032;6.356;2022-08-19T00:05:00;17.80;99.90
10296;DHT22;5193;51.032;6.356;2022-08-19T00:07:26;17.80;99.90
10296;DHT22;5193;51.032;6.356;2022-08-19T00:09:52;17.70;99.90
10296;DHT22;5193;51.032;6.356;2022-08-19T00:12:17;17.70;99.90
10296;DHT22;5193;51.032;6.356;2022-08-19T00:14:43;17.70;99.90
10296;DHT22;5193;51.032;6.356;2022-08-19T00:17:09;17.60;99.90
10296;DHT22;5193;51.032;6.356;2022-08-19T00:19:36;17.60;99.90
10296;DHT22;5193;51.032;6.356;2022-08-19T00:22:02;17.50;99.90
10296;DHT22;5193;51.032;6.356;2022-08-19T00:24:28;17.50;99.90
10296;DHT22;5193;51.032;6.356;2022-08-19T00:26:55;17.50;99.90
10296;DHT22;5193;51.032;6.356;2022-08-19T00:29:23;17.40;99.90
10296;DHT22;5193;51.032;6.356;2022-08-19T00:31:50;17.40;99.90
10296;DHT22;5193;51.032;6.356;2022-08-19T00:34:18;17.40;99.90
10296;DHT22;5193;51.032;6.356;2022-08-19T00:36:45;17.30;99.90
10296;DHT22;5193;51.032;6.356;2022-08-19T00:39:11;17.30;99.90
10296;DHT22;5193;51.032;6.356;2022-08-19T00:41:37;17.20;99.90
10296;DHT22;5193;51.032;6.356;2022-08-19T00:44:07;17.20;99.90
10296;DHT22;5193;51.032;6.356;2022-08-19T00:46:35;17.10;99.90
10296;DHT22;5193;51.032;6.356;2022-08-19T00:49:09;17.10;99.90
10296;DHT22;5193;51.032;6.356;2022-08-19T00:51:35;17.10;99.90
10296;DHT22;5193;51.032;6.356;2022-08-19T00:54:02;17.00;99.90
10296;DHT22;5193;51.032;6.356;2022-08-19T00:56:28;17.00;99.90
10296;DHT22;5193;51.032;6.356;2022-08-19T00:58:57;16.90;99.90
10296;DHT22;5193;51.032;6.356;2022-08-19T01:01:23;16.90;99.90
10296;DHT22;5193;51.032;6.356;2022-08-19T01:03:49;16.90;99.90
10296;DHT22;5193;51.032;6.356;2022-08-19T01:06:15;16.90;99.90
10296;DHT22;5193;51.032;6.356;2022-08-19T01:08:41;16.80;99.90
10296;DHT22;5193;51.032;6.356;2022-08-19T01:11:07;16.80;99.90
10296;DHT22;5193;51.032;6.356;2022-08-19T01:13:34;16.70;99.90
10296;DHT22;5193;51.032;6.356;2022-08-19T01:16:05;16.80;99.90
10296;DHT22;5193;51.032;6.356;2022-08-19T01:18:35;16.70;99.90
10296;DHT22;5193;51.032;6.356;2022-08-19T01:21:09;16.60;99.90
10296;DHT22;5193;51.032;6.356;2022-08-19T01:23:36;16.60;99.90
10296;DHT22;5193;51.032;6.356;2022-08-19T01:26:13;16.60;99.90
10296;DHT22;5193;51.032;6.356;2022-08-19T01:28:40;16.50;99.90
10296;DHT22;5193;51.032;6.356;2022-08-19T01:31:12;16.50;99.90
10296;DHT22;5193;51.032;6.356;2022-08-19T01:33:38;16.40;99.90
10296;DHT22;5193;51.032;6.356;2022-08-19T01:36:12;16.40;99.90
10296;DHT22;5193;51.032;6.356;2022-08-19T01:38:40;16.40;99.90
10296;DHT22;5193;51.032;6.356;2022-08-19T01:41:08;16.40;99.90
10296;DHT22;5193;51.032;6.356;2022-08-19T01:43:34;16.40;99.90
10296;DHT22;5193;51.032;6.356;2022-08-19T01:46:00;16.30;99.90
10296;DHT22;5193;51.032;6.356;2022-08-19T01:48:26;16.30;99.90
10296;DHT22;5193;51.032;6.356;2022-08-19T01:50:54;16.30;99.90
10296;DHT22;5193;51.032;6.356;2022-08-19T01:53:20;16.20;99.90
10296;DHT22;5193;51.032;6.356;2022-08-19T01:55:45;16.10;99.90
10296;DHT22;5193;51.032;6.356;2022-08-19T01:58:18;16.20;99.90
10296;DHT22;5193;51.032;6.356;2022-08-19T02:00:45;16.10;99.90
10296;DHT22;5193;51.032;6.356;2022-08-19T02:03:11;16.10;99.90
10296;DHT22;5193;51.032;6.356;2022-08-19T02:05:38;16.10;99.90
10296;DHT22;5193;51.032;6.356;2022-08-19T02:08:04;16.10;99.90
10296;DHT22;5193;51.032;6.356;2022-08-19T02:10:30;16.10;99.90
10296;DHT22;5193;51.032;6.356;2022-08-19T02:12:57;16.00;99.90
10296;DHT22;5193;51.032;6.356;2022-08-19T02:15:22;16.00;99.90
10296;DHT22;5193;51.032;6.356;2022-08-19T02:17:48;15.90;99.90
10296;DHT22;5193;51.032;6.356;2022-08-19T02:20:15;15.90;99.90
10296;DHT22;5193;51.032;6.356;2022-08-19T02:22:41;15.90;99.90
10296;DHT22;5193;51.032;6.356;2022-08-19T02:25:09;15.80;99.90
10296;DHT22;5193;51.032;6.356;2022-08-19T02:27:35;15.80;99.90
10296;DHT22;5193;51.032;6.356;2022-08-19T02:30:02;15.80;99.90
10296;DHT22;5193;51.032;6.356;2022-08-19T02:32:27;15.80;99.90
10296;DHT22;5193;51.032;6.356;2022-08-19T02:34:54;15.80;99.90
10296;DHT22;5193;51.032;6.356;2022-08-19T02:37:20;15.90;99.90
10296;DHT22;5193;51.032;6.356;2022-08-19T02:40:04;15.80;99.90
10296;DHT22;5193;51.032;6.356;2022-08-19T02:42:30;15.80;99.90
10296;DHT22;5193;51.032;6.356;2022-08-19T02:44:56;15.80;99.90
10296;DHT22;5193;51.032;6.356;2022-08-19T02:47:22;15.70;99.90
10296;DHT22;5193;51.032;6.356;2022-08-19T02:49:47;15.80;99.90
10296;DHT22;5193;51.032;6.356;2022-08-19T02:52:15;15.80;99.90
10296;DHT22;5193;51.032;6.356;2022-08-19T02:54:41;15.80;99.90
10296;DHT22;5193;51.032;6.356;2022-08-19T02:57:06;15.80;99.90
10296;DHT22;5193;51.032;6.356;2022-08-19T02:59:33;15.70;99.90
10296;DHT22;5193;51.032;6.356;2022-08-19T03:01:59;15.70;99.90
10296;DHT22;5193;51.032;6.356;2022-08-19T03:04:25;15.80;99.90
10296;DHT22;5193;51.032;6.356;2022-08-19T03:06:51;15.80;99.90
10296;DHT22;5193;51.032;6.356;2022-08-19T03:09:19;15.80;99.90
10296;DHT22;5193;51.032;6.356;2022-08-19T03:11:45;15.80;99.90
10296;DHT22;5193;51.032;6.356;2022-08-19T03:14:11;15.80;99.90
10296;DHT22;5193;51.032;6.356;2022-08-19T03:16:43;15.90;99.90
10296;DHT22;5193;51.032;6.356;2022-08-19T03:19:09;15.90;99.90
10296;DHT22;5193;51.032;6.356;2022-08-19T03:21:35;15.90;99.90
10296;DHT22;5193;51.032;6.356;2022-08-19T03:24:03;16.00;99.90
10296;DHT22;5193;51.032;6.356;2022-08-19T03:26:29;16.00;99.90
10296;DHT22;5193;51.032;6.356;2022-08-19T03:28:55;16.10;99.90
10296;DHT22;5193;51.032;6.356;2022-08-19T03:31:23;16.10;99.90
10296;DHT22;5193;51.032;6.356;2022-08-19T03:33:50;16.10;99.90
10296;DHT22;5193;51.032;6.356;2022-08-19T03:36:22;16.10;99.90
10296;DHT22;5193;51.032;6.356;2022-08-19T03:38:53;16.20;99.90
10296;DHT22;5193;51.032;6.356;2022-08-19T03:41:26;16.20;99.90
10296;DHT22;5193;51.032;6.356;2022-08-19T03:43:53;16.20;99.90
10296;DHT22;5193;51.032;6.356;2022-08-19T03:46:21;16.20;99.90
10296;DHT22;5193;51.032;6.356;2022-08-19T03:48:50;16.30;99.90
10296;DHT22;5193;51.032;6.356;2022-08-19T03:51:30;16.20;99.90
10296;DHT22;5193;51.032;6.356;2022-08-19T03:53:59;16.20;99.90
10296;DHT22;5193;51.032;6.356;2022-08-19T03:56:25;16.20;99.90
10296;DHT22;5193;51.032;6.356;2022-08-19T03:58:52;16.20;99.90
10296;DHT22;5193;51.032;6.356;2022-08-19T04:01:19;16.20;99.90
10296;DHT22;5193;51.032;6.356;2022-08-19T04:03:46;16.20;99.90
10296;DHT22;5193;51.032;6.356;2022-08-19T04:06:14;16.20;99.90
10296;DHT22;5193;51.032;6.356;2022-08-19T04:08:44;16.20;99.90
10296;DHT22;5193;51.032;6.356;2022-08-19T04:11:14;16.20;99.90
10296;DHT22;5193;51.032;6.356;2022-08-19T04:13:40;16.30;99.90
10296;DHT22;5193;51.032;6.356;2022-08-19T04:16:07;16.30;99.90
10296;DHT22;5193;51.032;6.356;2022-08-19T04:18:34;16.30;99.90
10296;DHT22;5193;51.032;6.356;2022-08-19T04:20:59;16.30;99.90
10296;DHT22;5193;51.032;6.356;2022-08-19T04:23:26;16.40;99.90
10296;DHT22;5193;51.032;6.356;2022-08-19T04:25:53;16.40;99.90
10296;DHT22;5193;51.032;6.356;2022-08-19T04:28:19;16.40;99.90
10296;DHT22;5193;51.032;6.356;2022-08-19T04:30:48;16.40;99.90
10296;DHT22;5193;51.032;6.356;2022-08-19T04:33:16;16.50;99.90
10296;DHT22;5193;51.032;6.356;2022-08-19T04:35:46;16.50;99.90
10296;DHT22;5193;51.032;6.356;2022-08-19T04:38:13;16.50;99.90
10296;DHT22;5193;51.032;6.356;2022-08-19T04:40:43;16.50;99.90
10296;DHT22;5193;51.032;6.356;2022-08-19T04:43:29;16.50;99.90
10296;DHT22;5193;51.032;6.356;2022-08-19T04:45:55;16.50;99.90
10296;DHT22;5193;51.032;6.356;2022-08-19T04:48:20;16.50;99.90
10296;DHT22;5193;51.032;6.356;2022-08-19T04:50:52;16.50;99.90
10296;DHT22;5193;51.032;6.356;2022-08-19T04:53:22;16.50;99.90
10296;DHT22;5193;51.032;6.356;2022-08-19T04:55:47;16.50;99.90
10296;DHT22;5193;51.032;6.356;2022-08-19T04:58:13;16.50;99.90
10296;DHT22;5193;51.032;6.356;2022-08-19T05:00:39;16.50;99.90
10296;DHT22;5193;51.032;6.356;2022-08-19T05:03:05;16.50;99.90
10296;DHT22;5193;51.032;6.356;2022-08-19T05:05:31;16.50;99.90
10296;DHT22;5193;51.032;6.356;2022-08-19T05:07:57;16.50;99.90
10296;DHT22;5193;51.032;6.356;2022-08-19T05:10:23;16.60;99.90
10296;DHT22;5193;51.032;6.356;2022-08-19T05:12:49;16.50;99.90
10296;DHT22;5193;51.032;6.356;2022-08-19T05:15:14;16.50;99.90
10296;DHT22;5193;51.032;6.356;2022-08-19T05:17:40;16.50;99.90
10296;DHT22;5193;51.032;6.356;2022-08-19T05:20:25;16.50;99.90
10296;DHT22;5193;51.032;6.356;2022-08-19T05:23:11;16.50;99.90
10296;DHT22;5193;51.032;6.356;2022-08-19T05:25:39;16.60;99.90
10296;DHT22;5193;51.032;6.356;2022-08-19T05:28:05;16.60;99.90
10296;DHT22;5193;51.032;6.356;2022-08-19T05:30:30;16.60;99.90
10296;DHT22;5193;51.032;6.356;2022-08-19T05:32:56;16.70;99.90
10296;DHT22;5193;51.032;6.356;2022-08-19T05:35:21;16.70;99.90
10296;DHT22;5193;51.032;6.356;2022-08-19T05:37:49;16.70;99.90
10296;DHT22;5193;51.032;6.356;2022-08-19T05:40:14;16.70;99.90
10296;DHT22;5193;51.032;6.356;2022-08-19T05:42:40;16.70;99.90
10296;DHT22;5193;51.032;6.356;2022-08-19T05:45:06;16.70;99.90
10296;DHT22;5193;51.032;6.356;2022-08-19T05:47:32;16.80;99.90
10296;DHT22;5193;51.032;6.356;2022-08-19T05:49:58;16.80;99.90
10296;DHT22;5193;51.032;6.356;2022-08-19T05:52:24;16.80;99.90
10296;DHT22;5193;51.032;6.356;2022-08-19T05:54:49;16.90;99.90
10296;DHT22;5193;51.032;6.356;2022-08-19T05:57:16;16.90;99.90
10296;DHT22;5193;51.032;6.356;2022-08-19T05:59:42;16.90;99.90
10296;DHT22;5193;51.032;6.356;2022-08-19T06:02:11;17.00;99.90
10296;DHT22;5193;51.032;6.356;2022-08-19T06:04:38;17.10;99.90
10296;DHT22;5193;51.032;6.356;2022-08-19T06:07:04;17.10;99.90
10296;DHT22;5193;51.032;6.356;2022-08-19T06:09:30;17.10;99.90
10296;DHT22;5193;51.032;6.356;2022-08-19T06:11:57;17.20;99.90
10296;DHT22;5193;51.032;6.356;2022-08-19T06:14:27;17.20;99.90
10296;DHT22;5193;51.032;6.356;2022-08-19T06:16:54;17.30;99.90
10296;DHT22;5193;51.032;6.356;2022-08-19T06:19:21;17.40;99.90
10296;DHT22;5193;51.032;6.356;2022-08-19T06:21:50;17.60;99.90
10296;DHT22;5193;51.032;6.356;2022-08-19T06:24:19;17.70;99.90
10296;DHT22;5193;51.032;6.356;2022-08-19T06:26:46;17.70;99.90
10296;DHT22;5193;51.032;6.356;2022-08-19T06:29:14;17.80;99.90
10296;DHT22;5193;51.032;6.356;2022-08-19T06:31:45;17.80;99.90
10296;DHT22;5193;51.032;6.356;2022-08-19T06:34:11;17.80;99.90
10296;DHT22;5193;51.032;6.356;2022-08-19T06:36:42;17.80;99.90
10296;DHT22;5193;51.032;6.356;2022-08-19T06:39:16;17.80;99.90
10296;DHT22;5193;51.032;6.356;2022-08-19T06:41:44;17.90;99.90
10296;DHT22;5193;51.032;6.356;2022-08-19T06:44:10;17.90;99.90
10296;DHT22;5193;51.032;6.356;2022-08-19T06:46:37;18.00;99.90
10296;DHT22;5193;51.032;6.356;2022-08-19T06:49:03;18.10;99.90
10296;DHT22;5193;51.032;6.356;2022-08-19T06:51:29;18.30;99.90
10296;DHT22;5193;51.032;6.356;2022-08-19T06:53:57;18.40;99.90
10296;DHT22;5193;51.032;6.356;2022-08-19T06:56:25;18.60;99.90
10296;DHT22;5193;51.032;6.356;2022-08-19T06:58:56;18.70;99.90
10296;DHT22;5193;51.032;6.356;2022-08-19T07:01:22;18.80;99.90
10296;DHT22;5193;51.032;6.356;2022-08-19T07:03:48;18.80;99.90
10296;DHT22;5193;51.032;6.356;2022-08-19T07:06:16;18.80;99.90
10296;DHT22;5193;51.032;6.356;2022-08-19T07:08:44;18.90;99.90
10296;DHT22;5193;51.032;6.356;2022-08-19T07:11:11;19.00;99.90
10296;DHT22;5193;51.032;6.356;2022-08-19T07:13:39;19.10;99.90
10296;DHT22;5193;51.032;6.356;2022-08-19T07:16:06;19.10;99.90
10296;DHT22;5193;51.032;6.356;2022-08-19T07:18:32;19.10;99.90
10296;DHT22;5193;51.032;6.356;2022-08-19T07:21:07;19.20;99.90
10296;DHT22;5193;51.032;6.356;2022-08-19T07:23:33;19.20;99.90
10296;DHT22;5193;51.032;6.356;2022-08-19T07:26:24;19.30;99.90
10296;DHT22;5193;51.032;6.356;2022-08-19T07:28:50;19.50;99.90
10296;DHT22;5193;51.032;6.356;2022-08-19T07:31:19;19.60;99.90
10296;DHT22;5193;51.032;6.356;2022-08-19T07:33:46;19.80;99.90
10296;DHT22;5193;51.032;6.356;2022-08-19T07:36:13;19.90;99.90
10296;DHT22;5193;51.032;6.356;2022-08-19T07:38:43;20.10;99.90
10296;DHT22;5193;51.032;6.356;2022-08-19T07:41:11;20.20;99.90
10296;DHT22;5193;51.032;6.356;2022-08-19T07:43:38;20.40;99.90
10296;DHT22;5193;51.032;6.356;2022-08-19T07:46:04;20.60;99.90
10296;DHT22;5193;51.032;6.356;2022-08-19T07:48:30;20.60;99.90
10296;DHT22;5193;51.032;6.356;2022-08-19T07:50:58;20.80;99.90
10296;DHT22;5193;51.032;6.356;2022-08-19T07:53:27;21.00;99.90
10296;DHT22;5193;51.032;6.356;2022-08-19T07:55:53;21.20;99.90
10296;DHT22;5193;51.032;6.356;2022-08-19T07:58:20;21.30;99.90
10296;DHT22;5193;51.032;6.356;2022-08-19T08:00:47;21.40;99.90
10296;DHT22;5193;51.032;6.356;2022-08-19T08:03:15;21.50;99.90
10296;DHT22;5193;51.032;6.356;2022-08-19T08:05:41;21.60;99.90
10296;DHT22;5193;51.032;6.356;2022-08-19T08:08:25;21.70;99.90
10296;DHT22;5193;51.032;6.356;2022-08-19T08:11:11;21.90;99.90
10296;DHT22;5193;51.032;6.356;2022-08-19T08:13:37;22.00;99.90
10296;DHT22;5193;51.032;6.356;2022-08-19T08:16:03;22.10;99.90
10296;DHT22;5193;51.032;6.356;2022-08-19T08:18:29;22.30;99.90
10296;DHT22;5193;51.032;6.356;2022-08-19T08:20:55;22.40;99.90
10296;DHT22;5193;51.032;6.356;2022-08-19T08:23:22;22.60;99.90
10296;DHT22;5193;51.032;6.356;2022-08-19T08:25:48;22.80;99.90
10296;DHT22;5193;51.032;6.356;2022-08-19T08:28:14;22.90;99.90
10296;DHT22;5193;51.032;6.356;2022-08-19T08:30:40;22.90;99.90
10296;DHT22;5193;51.032;6.356;2022-08-19T08:33:08;23.00;99.90
10296;DHT22;5193;51.032;6.356;2022-08-19T08:35:34;23.10;99.90
10296;DHT22;5193;51.032;6.356;2022-08-19T08:37:59;23.20;99.90
10296;DHT22;5193;51.032;6.356;2022-08-19T08:40:33;23.30;99.90
10296;DHT22;5193;51.032;6.356;2022-08-19T08:46:08;23.40;99.90
10296;DHT22;5193;51.032;6.356;2022-08-19T08:48:49;23.50;99.90
10296;DHT22;5193;51.032;6.356;2022-08-19T08:51:22;23.50;99.90
10296;DHT22;5193;51.032;6.356;2022-08-19T08:53:50;23.60;99.90
10296;DHT22;5193;51.032;6.356;2022-08-19T08:56:17;23.60;99.90
10296;DHT22;5193;51.032;6.356;2022-08-19T08:59:06;23.50;99.90
10296;DHT22;5193;51.032;6.356;2022-08-19T09:01:34;23.40;99.90
10296;DHT22;5193;51.032;6.356;2022-08-19T09:04:04;23.30;99.90
10296;DHT22;5193;51.032;6.356;2022-08-19T09:09:30;23.30;99.90
10296;DHT22;5193;51.032;6.356;2022-08-19T09:12:05;23.30;99.90
10296;DHT22;5193;51.032;6.356;2022-08-19T09:14:52;23.30;99.90
10296;DHT22;5193;51.032;6.356;2022-08-19T09:17:28;23.40;99.90
10296;DHT22;5193;51.032;6.356;2022-08-19T09:20:06;23.50;99.90
10296;DHT22;5193;51.032;6.356;2022-08-19T09:22:38;23.50;99.90
10296;DHT22;5193;51.032;6.356;2022-08-19T09:25:07;23.70;99.90
10296;DHT22;5193;51.032;6.356;2022-08-19T09:27:35;23.70;99.90
10296;DHT22;5193;51.032;6.356;2022-08-19T09:30:02;23.80;99.90
10296;DHT22;5193;51.032;6.356;2022-08-19T09:32:28;23.80;99.90
10296;DHT22;5193;51.032;6.356;2022-08-19T09:34:53;23.80;99.90
10296;DHT22;5193;51.032;6.356;2022-08-19T09:37:20;23.80;99.90
10296;DHT22;5193;51.032;6.356;2022-08-19T09:39:46;23.80;99.90
10296;DHT22;5193;51.032;6.356;2022-08-19T09:42:12;23.70;99.90
10296;DHT22;5193;51.032;6.356;2022-08-19T09:44:42;23.70;99.90
10296;DHT22;5193;51.032;6.356;2022-08-19T09:47:10;23.60;99.90
10296;DHT22;5193;51.032;6.356;2022-08-19T09:49:37;23.60;99.90
10296;DHT22;5193;51.032;6.356;2022-08-19T09:52:05;23.70;99.90
10296;DHT22;5193;51.032;6.356;2022-08-19T09:54:32;23.70;99.90
10296;DHT22;5193;51.032;6.356;2022-08-19T09:56:58;23.80;99.90
10296;DHT22;5193;51.032;6.356;2022-08-19T09:59:26;24.00;99.90
10296;DHT22;5193;51.032;6.356;2022-08-19T10:01:51;24.10;99.90
10296;DHT22;5193;51.032;6.356;2022-08-19T10:04:17;24.20;99.90
10296;DHT22;5193;51.032;6.356;2022-08-19T10:06:43;24.40;99.90
10296;DHT22;5193;51.032;6.356;2022-08-19T10:09:10;24.40;99.90
10296;DHT22;5193;51.032;6.356;2022-08-19T10:11:36;24.60;99.90
10296;DHT22;5193;51.032;6.356;2022-08-19T10:14:03;24.70;99.90
10296;DHT22;5193;51.032;6.356;2022-08-19T10:16:31;24.80;99.90
10296;DHT22;5193;51.032;6.356;2022-08-19T10:18:57;24.90;99.90
10296;DHT22;5193;51.032;6.356;2022-08-19T10:21:28;25.00;99.90
10296;DHT22;5193;51.032;6.356;2022-08-19T10:23:57;25.20;99.90
10296;DHT22;5193;51.032;6.356;2022-08-19T10:26:28;25.20;99.90
10296;DHT22;5193;51.032;6.356;2022-08-19T10:28:54;25.30;99.90
10296;DHT22;5193;51.032;6.356;2022-08-19T10:31:26;25.30;99.90
10296;DHT22;5193;51.032;6.356;2022-08-19T10:33:52;25.10;99.90
10296;DHT22;5193;51.032;6.356;2022-08-19T10:36:26;24.90;99.90
10296;DHT22;5193;51.032;6.356;2022-08-19T10:38:54;24.80;99.90
10296;DHT22;5193;51.032;6.356;2022-08-19T10:41:24;24.80;99.90
10296;DHT22;5193;51.032;6.356;2022-08-19T10:43:54;24.80;99.90
10296;DHT22;5193;51.032;6.356;2022-08-19T10:46:22;24.90;99.90
10296;DHT22;5193;51.032;6.356;2022-08-19T10:48:48;25.10;99.90
10296;DHT22;5193;51.032;6.356;2022-08-19T10:51:15;25.30;99.90
10296;DHT22;5193;51.032;6.356;2022-08-19T10:54:00;25.50;99.90
10296;DHT22;5193;51.032;6.356;2022-08-19T10:56:26;25.70;99.90
10296;DHT22;5193;51.032;6.356;2022-08-19T10:59:11;25.70;99.90
10296;DHT22;5193;51.032;6.356;2022-08-19T11:01:39;25.50;99.90
10296;DHT22;5193;51.032;6.356;2022-08-19T11:04:05;25.50;99.90
10296;DHT22;5193;51.032;6.356;2022-08-19T11:06:34;25.50;99.90
10296;DHT22;5193;51.032;6.356;2022-08-19T11:08:59;25.50;99.90
10296;DHT22;5193;51.032;6.356;2022-08-19T11:11:26;25.50;99.90
10296;DHT22;5193;51.032;6.356;2022-08-19T11:13:51;25.50;99.90
10296;DHT22;5193;51.032;6.356;2022-08-19T11:16:22;25.60;99.90
10296;DHT22;5193;51.032;6.356;2022-08-19T11:18:51;25.60;99.90
10296;DHT22;5193;51.032;6.356;2022-08-19T11:21:18;25.60;99.90
10296;DHT22;5193;51.032;6.356;2022-08-19T11:23:46;25.70;99.90
10296;DHT22;5193;51.032;6.356;2022-08-19T11:26:13;25.80;99.90
10296;DHT22;5193;51.032;6.356;2022-08-19T11:28:39;26.00;99.90
10296;DHT22;5193;51.032;6.356;2022-08-19T11:31:10;26.10;99.90
10296;DHT22;5193;51.032;6.356;2022-08-19T11:33:37;26.20;99.90
10296;DHT22;5193;51.032;6.356;2022-08-19T11:36:02;26.20;99.90
10296;DHT22;5193;51.032;6.356;2022-08-19T11:38:28;26.30;99.90
10296;DHT22;5193;51.032;6.356;2022-08-19T11:40:59;26.40;99.90
10296;DHT22;5193;51.032;6.356;2022-08-19T11:43:25;26.40;99.90
10296;DHT22;5193;51.032;6.356;2022-08-19T11:45:52;26.50;99.90
10296;DHT22;5193;51.032;6.356;2022-08-19T11:48:18;26.50;99.90
10296;DHT22;5193;51.032;6.356;2022-08-19T11:50:50;26.40;99.90
10296;DHT22;5193;51.032;6.356;2022-08-19T11:53:19;26.50;99.90
10296;DHT22;5193;51.032;6.356;2022-08-19T11:55:46;26.70;99.90
10296;DHT22;5193;51.032;6.356;2022-08-19T11:58:13;26.70;99.90
10296;DHT22;5193;51.032;6.356;2022-08-19T12:00:40;26.70;99.90
10296;DHT22;5193;51.032;6.356;2022-08-19T12:03:05;26.60;99.90
10296;DHT22;5193;51.032;6.356;2022-08-19T12:05:31;26.60;99.90
10296;DHT22;5193;51.032;6.356;2022-08-19T12:07:57;26.60;99.90
10296;DHT22;5193;51.032;6.356;2022-08-19T12:10:23;26.80;99.90
10296;DHT22;5193;51.032;6.356;2022-08-19T12:12:49;26.90;99.90
10296;DHT22;5193;51.032;6.356;2022-08-19T12:15:14;27.10;99.90
10296;DHT22;5193;51.032;6.356;2022-08-19T12:17:43;27.20;99.90
10296;DHT22;5193;51.032;6.356;2022-08-19T12:20:10;27.30;99.90
10296;DHT22;5193;51.032;6.356;2022-08-19T12:22:37;27.30;99.90
10296;DHT22;5193;51.032;6.356;2022-08-19T12:25:03;27.40;99.90
10296;DHT22;5193;51.032;6.356;2022-08-19T12:27:29;27.50;99.90
10296;DHT22;5193;51.032;6.356;2022-08-19T12:29:55;27.50;99.90
10296;DHT22;5193;51.032;6.356;2022-08-19T12:32:20;27.60;99.90
10296;DHT22;5193;51.032;6.356;2022-08-19T12:34:46;27.70;99.90
10296;DHT22;5193;51.032;6.356;2022-08-19T12:37:12;27.70;99.90
10296;DHT22;5193;51.032;6.356;2022-08-19T12:39:40;27.70;99.90
10296;DHT22;5193;51.032;6.356;2022-08-19T12:42:07;27.70;99.90
10296;DHT22;5193;51.032;6.356;2022-08-19T12:44:34;27.70;99.90
10296;DHT22;5193;51.032;6.356;2022-08-19T12:47:00;27.70;99.90
10296;DHT22;5193;51.032;6.356;2022-08-19T12:49:29;27.70;99.90
10296;DHT22;5193;51.032;6.356;2022-08-19T12:51:55;27.80;99.90
10296;DHT22;5193;51.032;6.356;2022-08-19T12:54:20;27.80;99.90
10296;DHT22;5193;51.032;6.356;2022-08-19T12:56:46;27.90;99.90
10296;DHT22;5193;51.032;6.356;2022-08-19T12:59:12;28.00;99.90
10296;DHT22;5193;51.032;6.356;2022-08-19T13:01:37;28.10;99.90
10296;DHT22;5193;51.032;6.356;2022-08-19T13:04:03;28.10;99.90
10296;DHT22;5193;51.032;6.356;2022-08-19T13:06:29;28.20;99.90
10296;DHT22;5193;51.032;6.356;2022-08-19T13:08:55;28.00;99.90
10296;DHT22;5193;51.032;6.356;2022-08-19T13:11:22;27.80;99.90
10296;DHT22;5193;51.032;6.356;2022-08-19T13:13:50;27.80;99.90
10296;DHT22;5193;51.032;6.356;2022-08-19T13:16:17;27.70;99.90
10296;DHT22;5193;51.032;6.356;2022-08-19T13:18:45;27.80;99.90
10296;DHT22;5193;51.032;6.356;2022-08-19T13:21:12;27.90;99.90
10296;DHT22;5193;51.032;6.356;2022-08-19T13:23:39;28.00;99.90
10296;DHT22;5193;51.032;6.356;2022-08-19T13:26:07;28.10;99.90
10296;DHT22;5193;51.032;6.356;2022-08-19T13:28:34;28.20;99.90
10296;DHT22;5193;51.032;6.356;2022-08-19T13:31:20;28.20;99.90
10296;DHT22;5193;51.032;6.356;2022-08-19T13:34:05;28.40;99.90
10296;DHT22;5193;51.032;6.356;2022-08-19T13:36:35;28.50;99.90
10296;DHT22;5193;51.032;6.356;2022-08-19T13:39:01;28.60;99.90
10296;DHT22;5193;51.032;6.356;2022-08-19T13:41:27;28.60;99.90
10296;DHT22;5193;51.032;6.356;2022-08-19T13:43:53;28.50;99.90
10296;DHT22;5193;51.032;6.356;2022-08-19T13:46:20;28.50;99.90
10296;DHT22;5193;51.032;6.356;2022-08-19T13:48:46;28.60;99.90
10296;DHT22;5193;51.032;6.356;2022-08-19T13:51:13;28.60;99.90
10296;DHT22;5193;51.032;6.356;2022-08-19T13:53:41;28.40;99.90
10296;DHT22;5193;51.032;6.356;2022-08-19T13:56:12;28.40;99.90
10296;DHT22;5193;51.032;6.356;2022-08-19T13:58:38;28.40;99.90
10296;DHT22;5193;51.032;6.356;2022-08-19T14:01:05;28.50;99.90
10296;DHT22;5193;51.032;6.356;2022-08-19T14:03:32;28.50;99.90
10296;DHT22;5193;51.032;6.356;2022-08-19T14:05:58;28.40;99.90
10296;DHT22;5193;51.032;6.356;2022-08-19T14:08:23;28.30;99.90
10296;DHT22;5193;51.032;6.356;2022-08-19T14:10:49;28.20;99.90
10296;DHT22;5193;51.032;6.356;2022-08-19T14:13:18;27.90;99.90
10296;DHT22;5193;51.032;6.356;2022-08-19T14:15:44;27.60;99.90
10296;DHT22;5193;51.032;6.356;2022-08-19T14:18:10;27.50;99.90
10296;DHT22;5193;51.032;6.356;2022-08-19T14:20:36;27.50;99.90
10296;DHT22;5193;51.032;6.356;2022-08-19T14:23:02;27.50;99.90
10296;DHT22;5193;51.032;6.356;2022-08-19T14:25:29;27.50;99.90
10296;DHT22;5193;51.032;6.356;2022-08-19T14:27:56;27.20;99.90
10296;DHT22;5193;51.032;6.356;2022-08-19T14:30:25;27.10;99.90
10296;DHT22;5193;51.032;6.356;2022-08-19T14:32:54;27.10;99.90
10296;DHT22;5193;51.032;6.356;2022-08-19T14:35:21;27.30;99.90
10296;DHT22;5193;51.032;6.356;2022-08-19T14:37:48;27.40;99.90
10296;DHT22;5193;51.032;6.356;2022-08-19T14:40:18;27.50;99.90
10296;DHT22;5193;51.032;6.356;2022-08-19T14:42:57;27.50;99.90
10296;DHT22;5193;51.032;6.356;2022-08-19T14:45:28;27.30;99.90
10296;DHT22;5193;51.032;6.356;2022-08-19T14:47:54;27.30;99.90
10296;DHT22;5193;51.032;6.356;2022-08-19T14:50:19;27.40;99.90
10296;DHT22;5193;51.032;6.356;2022-08-19T14:52:46;27.50;99.90
10296;DHT22;5193;51.032;6.356;2022-08-19T14:55:14;27.70;99.90
10296;DHT22;5193;51.032;6.356;2022-08-19T14:57:44;27.70;99.90
10296;DHT22;5193;51.032;6.356;2022-08-19T15:00:10;27.60;99.90
10296;DHT22;5193;51.032;6.356;2022-08-19T15:02:40;27.40;99.90
10296;DHT22;5193;51.032;6.356;2022-08-19T15:05:06;27.40;99.90
10296;DHT22;5193;51.032;6.356;2022-08-19T15:07:32;27.50;99.90
10296;DHT22;5193;51.032;6.356;2022-08-19T15:09:58;27.50;99.90
10296;DHT22;5193;51.032;6.356;2022-08-19T15:12:24;27.80;99.90
10296;DHT22;5193;51.032;6.356;2022-08-19T15:14:49;27.80;99.90
10296;DHT22;5193;51.032;6.356;2022-08-19T15:17:16;27.80;99.90
10296;DHT22;5193;51.032;6.356;2022-08-19T15:19:42;27.80;99.90
10296;DHT22;5193;51.032;6.356;2022-08-19T15:22:07;27.80;99.90
10296;DHT22;5193;51.032;6.356;2022-08-19T15:24:33;27.70;99.90
10296;DHT22;5193;51.032;6.356;2022-08-19T15:27:01;27.40;99.90
10296;DHT22;5193;51.032;6.356;2022-08-19T15:29:26;27.30;99.90
10296;DHT22;5193;51.032;6.356;2022-08-19T15:34:21;27.10;99.90
10296;DHT22;5193;51.032;6.356;2022-08-19T15:36:46;27.00;99.90
10296;DHT22;5193;51.032;6.356;2022-08-19T15:39:12;26.90;99.90
10296;DHT22;5193;51.032;6.356;2022-08-19T15:41:38;26.80;99.90
10296;DHT22;5193;51.032;6.356;2022-08-19T15:44:07;26.60;99.90
10296;DHT22;5193;51.032;6.356;2022-08-19T15:46:35;26.60;99.90
10296;DHT22;5193;51.032;6.356;2022-08-19T15:49:01;26.40;99.90
10296;DHT22;5193;51.032;6.356;2022-08-19T15:51:29;26.40;99.90
10296;DHT22;5193;51.032;6.356;2022-08-19T15:53:56;26.30;99.90
10296;DHT22;5193;51.032;6.356;2022-08-19T15:56:22;26.30;99.90